sensor_id;sensor_type;location;lat;lon;timestamp;P1;durP1;ratioP1;P2;durP2;ratioP2
11777;SDS011;5946;51.770;8.548;2023-04-01T00:00:17;3.73;;;1.80;;
11777;SDS011;5946;51.770;8.548;2023-04-01T00:02:43;1.93;;;1.43;;
11777;SDS011;5946;51.770;8.548;2023-04-01T00:05:09;3.57;;;1.30;;
11777;SDS011;5946;51.770;8.548;2023-04-01T00:07:35;3.07;;;1.20;;
11777;SDS011;5946;51.770;8.548;2023-04-01T00:10:02;3.87;;;1.80;;
11777;SDS011;5946;51.770;8.548;2023-04-01T00:12:28;3.87;;;1.17;;
11777;SDS011;5946;51.770;8.548;2023-04-01T00:14:54;3.37;;;1.10;;
11777;SDS011;5946;51.770;8.548;2023-04-01T00:17:20;3.07;;;1.27;;
11777;SDS011;5946;51.770;8.548;2023-04-01T00:19:46;4.20;;;1.40;;
11777;SDS011;5946;51.770;8.548;2023-04-01T00:22:13;3.63;;;1.27;;
11777;SDS011;5946;51.770;8.548;2023-04-01T00:24:39;3.03;;;1.20;;
11777;SDS011;5946;51.770;8.548;2023-04-01T00:27:05;1.40;;;0.97;;
11777;SDS011;5946;51.770;8.548;2023-04-01T00:29:32;2.77;;;1.30;;
11777;SDS011;5946;51.770;8.548;2023-04-01T00:31:58;2.77;;;1.23;;
11777;SDS011;5946;51.770;8.548;2023-04-01T00:34:24;1.63;;;1.00;;
11777;SDS011;5946;51.770;8.548;2023-04-01T00:36:50;3.83;;;1.13;;
11777;SDS011;5946;51.770;8.548;2023-04-01T00:39:17;1.57;;;0.90;;
11777;SDS011;5946;51.770;8.548;2023-04-01T00:41:43;4.63;;;1.10;;
11777;SDS011;5946;51.770;8.548;2023-04-01T00:44:42;1.33;;;0.70;;
11777;SDS011;5946;51.770;8.548;2023-04-01T00:47:01;2.40;;;0.90;;
11777;SDS011;5946;51.770;8.548;2023-04-01T00:49:31;1.53;;;0.70;;
11777;SDS011;5946;51.770;8.548;2023-04-01T00:51:58;1.97;;;0.87;;
11777;SDS011;5946;51.770;8.548;2023-04-01T00:54:26;2.77;;;0.90;;
11777;SDS011;5946;51.770;8.548;2023-04-01T00:57:03;0.70;;;0.70;;
11777;SDS011;5946;51.770;8.548;2023-04-01T00:59:30;3.33;;;1.23;;
11777;SDS011;5946;51.770;8.548;2023-04-01T01:01:57;1.30;;;0.70;;
11777;SDS011;5946;51.770;8.548;2023-04-01T01:04:24;1.53;;;0.90;;
11777;SDS011;5946;51.770;8.548;2023-04-01T01:06:56;1.63;;;0.70;;
11777;SDS011;5946;51.770;8.548;2023-04-01T01:12:19;6.03;;;3.40;;
11777;SDS011;5946;51.770;8.548;2023-04-01T01:14:53;6.27;;;3.20;;
11777;SDS011;5946;51.770;8.548;2023-04-01T01:25:28;4.50;;;1.70;;
11777;SDS011;5946;51.770;8.548;2023-04-01T01:28:08;0.97;;;0.60;;
11777;SDS011;5946;51.770;8.548;2023-04-01T01:30:45;1.10;;;0.80;;
11777;SDS011;5946;51.770;8.548;2023-04-01T01:33:18;1.67;;;1.03;;
11777;SDS011;5946;51.770;8.548;2023-04-01T01:35:46;2.57;;;1.30;;
11777;SDS011;5946;51.770;8.548;2023-04-01T01:38:15;1.77;;;1.00;;
11777;SDS011;5946;51.770;8.548;2023-04-01T01:40:43;1.43;;;0.90;;
11777;SDS011;5946;51.770;8.548;2023-04-01T01:43:11;1.67;;;0.70;;
11777;SDS011;5946;51.770;8.548;2023-04-01T01:45:39;1.17;;;0.80;;
11777;SDS011;5946;51.770;8.548;2023-04-01T01:48:06;1.50;;;0.70;;
11777;SDS011;5946;51.770;8.548;2023-04-01T01:50:34;2.37;;;1.00;;
11777;SDS011;5946;51.770;8.548;2023-04-01T01:53:08;2.77;;;0.80;;
11777;SDS011;5946;51.770;8.548;2023-04-01T01:55:35;1.23;;;0.70;;
11777;SDS011;5946;51.770;8.548;2023-04-01T01:58:04;2.27;;;0.70;;
11777;SDS011;5946;51.770;8.548;2023-04-01T02:00:30;2.73;;;0.73;;
11777;SDS011;5946;51.770;8.548;2023-04-01T02:02:57;1.03;;;0.53;;
11777;SDS011;5946;51.770;8.548;2023-04-01T02:05:24;3.90;;;0.90;;
11777;SDS011;5946;51.770;8.548;2023-04-01T02:07:55;2.10;;;0.80;;
11777;SDS011;5946;51.770;8.548;2023-04-01T02:10:24;3.60;;;0.77;;
11777;SDS011;5946;51.770;8.548;2023-04-01T02:12:50;3.93;;;0.80;;
11777;SDS011;5946;51.770;8.548;2023-04-01T02:15:17;2.40;;;0.77;;
11777;SDS011;5946;51.770;8.548;2023-04-01T02:17:44;1.07;;;0.60;;
11777;SDS011;5946;51.770;8.548;2023-04-01T02:20:15;2.40;;;0.70;;
11777;SDS011;5946;51.770;8.548;2023-04-01T02:22:49;3.27;;;0.70;;
11777;SDS011;5946;51.770;8.548;2023-04-01T02:25:17;4.97;;;0.80;;
11777;SDS011;5946;51.770;8.548;2023-04-01T02:27:44;2.80;;;0.80;;
11777;SDS011;5946;51.770;8.548;2023-04-01T02:30:11;1.97;;;0.70;;
11777;SDS011;5946;51.770;8.548;2023-04-01T02:32:38;3.03;;;0.77;;
11777;SDS011;5946;51.770;8.548;2023-04-01T02:35:05;1.13;;;0.63;;
11777;SDS011;5946;51.770;8.548;2023-04-01T02:37:32;1.80;;;0.50;;
11777;SDS011;5946;51.770;8.548;2023-04-01T02:40:00;1.70;;;0.73;;
11777;SDS011;5946;51.770;8.548;2023-04-01T02:42:26;2.20;;;0.70;;
11777;SDS011;5946;51.770;8.548;2023-04-01T02:44:52;1.43;;;0.67;;
11777;SDS011;5946;51.770;8.548;2023-04-01T02:47:18;0.83;;;0.60;;
11777;SDS011;5946;51.770;8.548;2023-04-01T02:49:44;1.47;;;0.50;;
11777;SDS011;5946;51.770;8.548;2023-04-01T02:52:10;4.33;;;1.00;;
11777;SDS011;5946;51.770;8.548;2023-04-01T02:54:36;2.53;;;0.73;;
11777;SDS011;5946;51.770;8.548;2023-04-01T02:57:02;1.13;;;0.60;;
11777;SDS011;5946;51.770;8.548;2023-04-01T02:59:28;1.60;;;0.60;;
11777;SDS011;5946;51.770;8.548;2023-04-01T03:01:54;4.20;;;0.83;;
11777;SDS011;5946;51.770;8.548;2023-04-01T03:04:20;0.90;;;0.53;;
11777;SDS011;5946;51.770;8.548;2023-04-01T03:06:46;2.50;;;0.70;;
11777;SDS011;5946;51.770;8.548;2023-04-01T03:09:12;1.90;;;0.43;;
11777;SDS011;5946;51.770;8.548;2023-04-01T03:11:38;2.30;;;0.70;;
11777;SDS011;5946;51.770;8.548;2023-04-01T03:14:04;1.53;;;0.60;;
11777;SDS011;5946;51.770;8.548;2023-04-01T03:16:30;2.00;;;0.70;;
11777;SDS011;5946;51.770;8.548;2023-04-01T03:18:56;1.33;;;0.60;;
11777;SDS011;5946;51.770;8.548;2023-04-01T03:21:24;1.63;;;0.43;;
11777;SDS011;5946;51.770;8.548;2023-04-01T03:23:50;1.57;;;0.60;;
11777;SDS011;5946;51.770;8.548;2023-04-01T03:26:16;2.63;;;0.60;;
11777;SDS011;5946;51.770;8.548;2023-04-01T03:28:42;1.20;;;0.60;;
11777;SDS011;5946;51.770;8.548;2023-04-01T03:31:08;5.70;;;1.17;;
11777;SDS011;5946;51.770;8.548;2023-04-01T03:33:34;1.93;;;0.70;;
11777;SDS011;5946;51.770;8.548;2023-04-01T03:36:00;1.47;;;0.70;;
11777;SDS011;5946;51.770;8.548;2023-04-01T03:38:26;1.37;;;0.70;;
11777;SDS011;5946;51.770;8.548;2023-04-01T03:40:52;1.83;;;0.53;;
11777;SDS011;5946;51.770;8.548;2023-04-01T03:43:18;5.50;;;0.67;;
11777;SDS011;5946;51.770;8.548;2023-04-01T03:45:48;1.30;;;0.50;;
11777;SDS011;5946;51.770;8.548;2023-04-01T03:48:14;1.80;;;0.50;;
11777;SDS011;5946;51.770;8.548;2023-04-01T03:50:40;1.43;;;0.60;;
11777;SDS011;5946;51.770;8.548;2023-04-01T03:53:06;0.63;;;0.40;;
11777;SDS011;5946;51.770;8.548;2023-04-01T03:55:32;0.80;;;0.50;;
11777;SDS011;5946;51.770;8.548;2023-04-01T03:57:59;3.10;;;0.60;;
11777;SDS011;5946;51.770;8.548;2023-04-01T04:00:26;1.00;;;0.50;;
11777;SDS011;5946;51.770;8.548;2023-04-01T04:02:52;2.70;;;0.70;;
11777;SDS011;5946;51.770;8.548;2023-04-01T04:05:19;2.10;;;0.60;;
11777;SDS011;5946;51.770;8.548;2023-04-01T04:07:45;1.60;;;0.67;;
11777;SDS011;5946;51.770;8.548;2023-04-01T04:10:11;1.20;;;0.70;;
11777;SDS011;5946;51.770;8.548;2023-04-01T04:12:37;0.70;;;0.70;;
11777;SDS011;5946;51.770;8.548;2023-04-01T04:15:05;4.33;;;0.70;;
11777;SDS011;5946;51.770;8.548;2023-04-01T04:17:31;0.63;;;0.63;;
11777;SDS011;5946;51.770;8.548;2023-04-01T04:19:57;2.10;;;0.73;;
11777;SDS011;5946;51.770;8.548;2023-04-01T04:22:23;1.37;;;0.60;;
11777;SDS011;5946;51.770;8.548;2023-04-01T04:24:49;1.73;;;0.70;;
11777;SDS011;5946;51.770;8.548;2023-04-01T04:27:15;1.00;;;0.70;;
11777;SDS011;5946;51.770;8.548;2023-04-01T04:29:41;3.13;;;0.87;;
11777;SDS011;5946;51.770;8.548;2023-04-01T04:32:07;3.40;;;0.93;;
11777;SDS011;5946;51.770;8.548;2023-04-01T04:34:32;1.67;;;0.57;;
11777;SDS011;5946;51.770;8.548;2023-04-01T04:36:58;0.50;;;0.50;;
11777;SDS011;5946;51.770;8.548;2023-04-01T04:39:24;0.50;;;0.50;;
11777;SDS011;5946;51.770;8.548;2023-04-01T04:41:50;1.00;;;0.70;;
11777;SDS011;5946;51.770;8.548;2023-04-01T04:44:16;0.83;;;0.60;;
11777;SDS011;5946;51.770;8.548;2023-04-01T04:46:42;1.53;;;0.60;;
11777;SDS011;5946;51.770;8.548;2023-04-01T04:49:08;0.70;;;0.70;;
11777;SDS011;5946;51.770;8.548;2023-04-01T04:51:34;2.10;;;0.90;;
11777;SDS011;5946;51.770;8.548;2023-04-01T04:54:03;1.07;;;0.70;;
11777;SDS011;5946;51.770;8.548;2023-04-01T04:56:29;1.87;;;0.73;;
11777;SDS011;5946;51.770;8.548;2023-04-01T04:58:55;1.20;;;0.70;;
11777;SDS011;5946;51.770;8.548;2023-04-01T05:01:21;2.67;;;0.60;;
11777;SDS011;5946;51.770;8.548;2023-04-01T05:03:47;0.73;;;0.53;;
11777;SDS011;5946;51.770;8.548;2023-04-01T05:06:14;0.90;;;0.50;;
11777;SDS011;5946;51.770;8.548;2023-04-01T05:08:40;1.37;;;0.47;;
11777;SDS011;5946;51.770;8.548;2023-04-01T05:11:09;0.70;;;0.57;;
11777;SDS011;5946;51.770;8.548;2023-04-01T05:13:35;2.30;;;0.57;;
11777;SDS011;5946;51.770;8.548;2023-04-01T05:16:01;1.53;;;0.63;;
11777;SDS011;5946;51.770;8.548;2023-04-01T05:18:27;1.03;;;0.53;;
11777;SDS011;5946;51.770;8.548;2023-04-01T05:20:54;1.77;;;0.90;;
11777;SDS011;5946;51.770;8.548;2023-04-01T05:23:20;0.97;;;0.60;;
11777;SDS011;5946;51.770;8.548;2023-04-01T05:25:47;4.10;;;0.70;;
11777;SDS011;5946;51.770;8.548;2023-04-01T05:28:13;1.20;;;0.73;;
11777;SDS011;5946;51.770;8.548;2023-04-01T05:30:40;0.60;;;0.60;;
11777;SDS011;5946;51.770;8.548;2023-04-01T05:33:07;1.20;;;0.67;;
11777;SDS011;5946;51.770;8.548;2023-04-01T05:35:33;1.97;;;1.03;;
11777;SDS011;5946;51.770;8.548;2023-04-01T05:37:59;0.97;;;0.57;;
11777;SDS011;5946;51.770;8.548;2023-04-01T05:40:25;0.80;;;0.70;;
11777;SDS011;5946;51.770;8.548;2023-04-01T05:42:51;2.00;;;0.70;;
11777;SDS011;5946;51.770;8.548;2023-04-01T05:45:17;1.37;;;1.00;;
11777;SDS011;5946;51.770;8.548;2023-04-01T05:47:43;4.30;;;2.20;;
11777;SDS011;5946;51.770;8.548;2023-04-01T05:50:09;4.37;;;3.57;;
11777;SDS011;5946;51.770;8.548;2023-04-01T05:52:35;4.23;;;3.23;;
11777;SDS011;5946;51.770;8.548;2023-04-01T05:55:03;5.40;;;4.10;;
11777;SDS011;5946;51.770;8.548;2023-04-01T05:57:29;5.20;;;4.50;;
11777;SDS011;5946;51.770;8.548;2023-04-01T05:59:55;4.90;;;4.23;;
11777;SDS011;5946;51.770;8.548;2023-04-01T06:02:21;6.50;;;5.13;;
11777;SDS011;5946;51.770;8.548;2023-04-01T06:04:47;3.50;;;2.60;;
11777;SDS011;5946;51.770;8.548;2023-04-01T06:07:14;6.67;;;3.00;;
11777;SDS011;5946;51.770;8.548;2023-04-01T06:09:40;6.10;;;3.70;;
11777;SDS011;5946;51.770;8.548;2023-04-01T06:12:23;6.13;;;2.60;;
11777;SDS011;5946;51.770;8.548;2023-04-01T06:17:40;1.40;;;1.30;;
11777;SDS011;5946;51.770;8.548;2023-04-01T06:20:20;2.97;;;1.57;;
11777;SDS011;5946;51.770;8.548;2023-04-01T06:25:18;5.23;;;2.40;;
11777;SDS011;5946;51.770;8.548;2023-04-01T06:30:20;2.33;;;2.03;;
11777;SDS011;5946;51.770;8.548;2023-04-01T06:35:28;5.47;;;1.60;;
11777;SDS011;5946;51.770;8.548;2023-04-01T06:38:09;2.60;;;1.37;;
11777;SDS011;5946;51.770;8.548;2023-04-01T06:48:58;4.20;;;2.23;;
11777;SDS011;5946;51.770;8.548;2023-04-01T06:51:40;4.23;;;2.00;;
11777;SDS011;5946;51.770;8.548;2023-04-01T06:54:31;7.60;;;2.80;;
11777;SDS011;5946;51.770;8.548;2023-04-01T06:57:01;4.97;;;2.23;;
11777;SDS011;5946;51.770;8.548;2023-04-01T06:59:28;2.57;;;1.83;;
11777;SDS011;5946;51.770;8.548;2023-04-01T07:01:57;1.93;;;1.37;;
11777;SDS011;5946;51.770;8.548;2023-04-01T07:06:52;2.30;;;1.30;;
11777;SDS011;5946;51.770;8.548;2023-04-01T07:09:20;2.13;;;1.60;;
11777;SDS011;5946;51.770;8.548;2023-04-01T07:11:47;2.77;;;2.00;;
11777;SDS011;5946;51.770;8.548;2023-04-01T07:14:20;5.07;;;2.30;;
11777;SDS011;5946;51.770;8.548;2023-04-01T07:16:49;3.47;;;1.90;;
11777;SDS011;5946;51.770;8.548;2023-04-01T07:19:22;3.73;;;2.30;;
11777;SDS011;5946;51.770;8.548;2023-04-01T07:22:02;2.30;;;1.60;;
11777;SDS011;5946;51.770;8.548;2023-04-01T07:24:32;3.30;;;1.77;;
11777;SDS011;5946;51.770;8.548;2023-04-01T07:26:58;5.93;;;3.90;;
11777;SDS011;5946;51.770;8.548;2023-04-01T07:29:25;5.03;;;3.30;;
11777;SDS011;5946;51.770;8.548;2023-04-01T07:35:16;6.50;;;2.43;;
11777;SDS011;5946;51.770;8.548;2023-04-01T07:42:46;2.20;;;1.93;;
11777;SDS011;5946;51.770;8.548;2023-04-01T07:50:23;2.50;;;2.30;;
11777;SDS011;5946;51.770;8.548;2023-04-01T07:55:29;2.37;;;1.70;;
11777;SDS011;5946;51.770;8.548;2023-04-01T07:57:59;3.93;;;1.90;;
11777;SDS011;5946;51.770;8.548;2023-04-01T08:14:21;0.70;;;0.70;;
11777;SDS011;5946;51.770;8.548;2023-04-01T08:16:52;1.57;;;0.90;;
11777;SDS011;5946;51.770;8.548;2023-04-01T08:19:30;0.97;;;0.73;;
11777;SDS011;5946;51.770;8.548;2023-04-01T08:21:58;2.00;;;0.83;;
11777;SDS011;5946;51.770;8.548;2023-04-01T08:26:56;1.23;;;0.70;;
11777;SDS011;5946;51.770;8.548;2023-04-01T08:29:36;0.60;;;0.60;;
11777;SDS011;5946;51.770;8.548;2023-04-01T08:32:09;1.03;;;0.80;;
11777;SDS011;5946;51.770;8.548;2023-04-01T08:34:37;0.50;;;0.50;;
11777;SDS011;5946;51.770;8.548;2023-04-01T08:40:13;1.17;;;0.60;;
11777;SDS011;5946;51.770;8.548;2023-04-01T08:45:36;1.47;;;0.80;;
11777;SDS011;5946;51.770;8.548;2023-04-01T08:56:15;0.63;;;0.63;;
11777;SDS011;5946;51.770;8.548;2023-04-01T09:06:33;0.70;;;0.70;;
11777;SDS011;5946;51.770;8.548;2023-04-01T09:09:17;0.60;;;0.60;;
11777;SDS011;5946;51.770;8.548;2023-04-01T09:11:54;0.73;;;0.70;;
11777;SDS011;5946;51.770;8.548;2023-04-01T09:17:01;0.87;;;0.80;;
11777;SDS011;5946;51.770;8.548;2023-04-01T09:19:42;1.70;;;0.73;;
11777;SDS011;5946;51.770;8.548;2023-04-01T09:24:56;1.53;;;1.10;;
11777;SDS011;5946;51.770;8.548;2023-04-01T09:30:04;2.30;;;1.10;;
11777;SDS011;5946;51.770;8.548;2023-04-01T09:35:20;3.10;;;1.10;;
11777;SDS011;5946;51.770;8.548;2023-04-01T09:37:51;1.17;;;1.07;;
11777;SDS011;5946;51.770;8.548;2023-04-01T09:40:30;2.37;;;0.80;;
11777;SDS011;5946;51.770;8.548;2023-04-01T09:48:10;0.77;;;0.77;;
11777;SDS011;5946;51.770;8.548;2023-04-01T09:50:47;0.60;;;0.60;;
11777;SDS011;5946;51.770;8.548;2023-04-01T09:55:49;2.37;;;0.70;;
11777;SDS011;5946;51.770;8.548;2023-04-01T09:58:43;0.60;;;0.60;;
11777;SDS011;5946;51.770;8.548;2023-04-01T10:01:30;0.93;;;0.70;;
11777;SDS011;5946;51.770;8.548;2023-04-01T10:25:05;0.90;;;0.90;;
11777;SDS011;5946;51.770;8.548;2023-04-01T10:43:38;1.20;;;1.10;;
11777;SDS011;5946;51.770;8.548;2023-04-01T10:51:34;0.90;;;0.90;;
11777;SDS011;5946;51.770;8.548;2023-04-01T10:54:17;1.00;;;0.90;;
11777;SDS011;5946;51.770;8.548;2023-04-01T11:07:22;3.37;;;2.00;;
11777;SDS011;5946;51.770;8.548;2023-04-01T11:18:00;1.90;;;1.80;;
11777;SDS011;5946;51.770;8.548;2023-04-01T11:20:52;2.57;;;1.90;;
11777;SDS011;5946;51.770;8.548;2023-04-01T11:26:23;1.57;;;1.30;;
11777;SDS011;5946;51.770;8.548;2023-04-01T11:34:28;3.23;;;1.90;;
11777;SDS011;5946;51.770;8.548;2023-04-01T11:40:07;3.80;;;3.40;;
11777;SDS011;5946;51.770;8.548;2023-04-01T11:45:58;3.10;;;2.10;;
11777;SDS011;5946;51.770;8.548;2023-04-01T11:53:28;1.97;;;1.73;;
11777;SDS011;5946;51.770;8.548;2023-04-01T11:56:00;1.80;;;1.70;;
11777;SDS011;5946;51.770;8.548;2023-04-01T11:58:32;4.10;;;1.90;;
11777;SDS011;5946;51.770;8.548;2023-04-01T12:06:06;1.50;;;1.40;;
11777;SDS011;5946;51.770;8.548;2023-04-01T12:11:00;2.87;;;1.80;;
11777;SDS011;5946;51.770;8.548;2023-04-01T12:13:32;3.63;;;2.47;;
11777;SDS011;5946;51.770;8.548;2023-04-01T12:18:53;2.97;;;1.80;;
11777;SDS011;5946;51.770;8.548;2023-04-01T12:24:03;2.40;;;2.17;;
11777;SDS011;5946;51.770;8.548;2023-04-01T12:26:35;2.20;;;2.00;;
11777;SDS011;5946;51.770;8.548;2023-04-01T12:29:13;2.60;;;2.40;;
11777;SDS011;5946;51.770;8.548;2023-04-01T12:32:03;5.77;;;2.57;;
11777;SDS011;5946;51.770;8.548;2023-04-01T12:37:04;2.20;;;2.10;;
11777;SDS011;5946;51.770;8.548;2023-04-01T12:39:38;3.20;;;2.53;;
11777;SDS011;5946;51.770;8.548;2023-04-01T12:44:42;2.50;;;2.30;;
11777;SDS011;5946;51.770;8.548;2023-04-01T12:49:56;2.50;;;2.30;;
11777;SDS011;5946;51.770;8.548;2023-04-01T12:55:03;3.50;;;3.20;;
11777;SDS011;5946;51.770;8.548;2023-04-01T12:57:54;2.93;;;2.63;;
11777;SDS011;5946;51.770;8.548;2023-04-01T13:00:27;3.07;;;2.47;;
11777;SDS011;5946;51.770;8.548;2023-04-01T13:03:01;2.67;;;2.40;;
11777;SDS011;5946;51.770;8.548;2023-04-01T13:15:54;6.20;;;3.77;;
11777;SDS011;5946;51.770;8.548;2023-04-01T13:21:12;5.90;;;4.60;;
11777;SDS011;5946;51.770;8.548;2023-04-01T13:26:11;3.80;;;3.50;;
11777;SDS011;5946;51.770;8.548;2023-04-01T13:31:13;6.70;;;4.07;;
11777;SDS011;5946;51.770;8.548;2023-04-01T13:50:01;6.40;;;5.30;;
11777;SDS011;5946;51.770;8.548;2023-04-01T13:52:22;9.43;;;7.10;;
11777;SDS011;5946;51.770;8.548;2023-04-01T13:57:43;9.50;;;7.70;;
11777;SDS011;5946;51.770;8.548;2023-04-01T14:03:09;5.03;;;4.53;;
11777;SDS011;5946;51.770;8.548;2023-04-01T14:05:44;5.37;;;4.03;;
11777;SDS011;5946;51.770;8.548;2023-04-01T14:10:49;5.03;;;4.53;;
11777;SDS011;5946;51.770;8.548;2023-04-01T14:16:13;5.60;;;5.03;;
11777;SDS011;5946;51.770;8.548;2023-04-01T14:26:26;5.80;;;4.93;;
11777;SDS011;5946;51.770;8.548;2023-04-01T14:39:38;4.20;;;3.80;;
11777;SDS011;5946;51.770;8.548;2023-04-01T14:50:09;4.73;;;4.23;;
11777;SDS011;5946;51.770;8.548;2023-04-01T14:52:39;3.87;;;3.57;;
11777;SDS011;5946;51.770;8.548;2023-04-01T15:00:40;6.00;;;5.40;;
11777;SDS011;5946;51.770;8.548;2023-04-01T15:03:16;4.77;;;3.60;;
11777;SDS011;5946;51.770;8.548;2023-04-01T15:08:31;3.87;;;3.53;;
11777;SDS011;5946;51.770;8.548;2023-04-01T15:11:07;4.17;;;3.87;;
11777;SDS011;5946;51.770;8.548;2023-04-01T15:18:56;4.70;;;4.20;;
11777;SDS011;5946;51.770;8.548;2023-04-01T15:24:00;7.03;;;6.03;;
11777;SDS011;5946;51.770;8.548;2023-04-01T15:26:42;5.23;;;4.13;;
11777;SDS011;5946;51.770;8.548;2023-04-01T15:29:19;6.27;;;4.40;;
11777;SDS011;5946;51.770;8.548;2023-04-01T15:31:59;4.50;;;3.87;;
11777;SDS011;5946;51.770;8.548;2023-04-01T15:34:37;4.53;;;4.13;;
11777;SDS011;5946;51.770;8.548;2023-04-01T15:37:26;4.43;;;4.03;;
11777;SDS011;5946;51.770;8.548;2023-04-01T15:42:43;8.00;;;6.73;;
11777;SDS011;5946;51.770;8.548;2023-04-01T15:47:45;10.70;;;9.60;;
11777;SDS011;5946;51.770;8.548;2023-04-01T15:55:26;9.90;;;8.90;;
11777;SDS011;5946;51.770;8.548;2023-04-01T15:58:06;14.37;;;12.27;;
11777;SDS011;5946;51.770;8.548;2023-04-01T16:03:15;11.63;;;8.60;;
11777;SDS011;5946;51.770;8.548;2023-04-01T16:11:03;10.27;;;9.27;;
11777;SDS011;5946;51.770;8.548;2023-04-01T16:16:21;11.60;;;9.27;;
11777;SDS011;5946;51.770;8.548;2023-04-01T16:21:33;8.33;;;7.53;;
11777;SDS011;5946;51.770;8.548;2023-04-01T16:26:37;8.70;;;7.00;;
11777;SDS011;5946;51.770;8.548;2023-04-01T16:29:10;7.63;;;6.90;;
11777;SDS011;5946;51.770;8.548;2023-04-01T16:31:48;6.50;;;5.90;;
11777;SDS011;5946;51.770;8.548;2023-04-01T16:34:18;7.50;;;6.70;;
11777;SDS011;5946;51.770;8.548;2023-04-01T16:37:00;6.60;;;5.90;;
11777;SDS011;5946;51.770;8.548;2023-04-01T16:44:59;6.77;;;6.07;;
11777;SDS011;5946;51.770;8.548;2023-04-01T16:47:34;8.17;;;7.30;;
11777;SDS011;5946;51.770;8.548;2023-04-01T16:52:42;7.37;;;6.60;;
11777;SDS011;5946;51.770;8.548;2023-04-01T16:55:17;8.27;;;7.40;;
11777;SDS011;5946;51.770;8.548;2023-04-01T16:57:49;8.97;;;8.00;;
11777;SDS011;5946;51.770;8.548;2023-04-01T17:03:08;7.07;;;5.90;;
11777;SDS011;5946;51.770;8.548;2023-04-01T17:10:54;9.00;;;7.67;;
11777;SDS011;5946;51.770;8.548;2023-04-01T17:13:26;9.87;;;8.00;;
11777;SDS011;5946;51.770;8.548;2023-04-01T17:18:51;10.43;;;8.87;;
11777;SDS011;5946;51.770;8.548;2023-04-01T17:24:23;11.97;;;9.30;;
11777;SDS011;5946;51.770;8.548;2023-04-01T17:29:44;9.83;;;8.20;;
11777;SDS011;5946;51.770;8.548;2023-04-01T17:34:42;10.33;;;8.40;;
11777;SDS011;5946;51.770;8.548;2023-04-01T17:37:28;11.37;;;9.70;;
11777;SDS011;5946;51.770;8.548;2023-04-01T17:42:30;10.97;;;9.70;;
11777;SDS011;5946;51.770;8.548;2023-04-01T17:45:21;10.17;;;9.10;;
11777;SDS011;5946;51.770;8.548;2023-04-01T17:47:52;15.57;;;10.80;;
11777;SDS011;5946;51.770;8.548;2023-04-01T17:50:28;16.93;;;13.07;;
11777;SDS011;5946;51.770;8.548;2023-04-01T17:55:39;16.27;;;11.87;;
11777;SDS011;5946;51.770;8.548;2023-04-01T18:01:03;16.17;;;11.27;;
11777;SDS011;5946;51.770;8.548;2023-04-01T18:09:01;12.20;;;10.50;;
11777;SDS011;5946;51.770;8.548;2023-04-01T18:11:35;12.70;;;10.70;;
11777;SDS011;5946;51.770;8.548;2023-04-01T18:16:45;13.90;;;11.33;;
11777;SDS011;5946;51.770;8.548;2023-04-01T18:21:55;16.90;;;13.00;;
11777;SDS011;5946;51.770;8.548;2023-04-01T18:27:01;15.67;;;13.43;;
11777;SDS011;5946;51.770;8.548;2023-04-01T18:45:53;12.63;;;9.80;;
11777;SDS011;5946;51.770;8.548;2023-04-01T18:51:19;13.93;;;11.27;;
11777;SDS011;5946;51.770;8.548;2023-04-01T18:54:02;11.00;;;9.80;;
11777;SDS011;5946;51.770;8.548;2023-04-01T18:56:32;7.40;;;6.70;;
11777;SDS011;5946;51.770;8.548;2023-04-01T19:01:33;5.20;;;4.70;;
11777;SDS011;5946;51.770;8.548;2023-04-01T19:06:33;4.90;;;4.40;;
11777;SDS011;5946;51.770;8.548;2023-04-01T19:09:09;6.20;;;4.60;;
11777;SDS011;5946;51.770;8.548;2023-04-01T19:14:30;5.93;;;4.70;;
11777;SDS011;5946;51.770;8.548;2023-04-01T19:17:22;4.67;;;4.27;;
11777;SDS011;5946;51.770;8.548;2023-04-01T19:20:03;4.30;;;3.90;;
11777;SDS011;5946;51.770;8.548;2023-04-01T19:22:39;5.10;;;4.30;;
11777;SDS011;5946;51.770;8.548;2023-04-01T19:25:21;5.17;;;4.57;;
11777;SDS011;5946;51.770;8.548;2023-04-01T19:27:49;5.00;;;4.50;;
11777;SDS011;5946;51.770;8.548;2023-04-01T19:35:47;7.20;;;5.30;;
11777;SDS011;5946;51.770;8.548;2023-04-01T19:45:51;7.63;;;4.80;;
11777;SDS011;5946;51.770;8.548;2023-04-01T19:51:39;7.30;;;5.30;;
11777;SDS011;5946;51.770;8.548;2023-04-01T19:53:58;5.77;;;4.97;;
11777;SDS011;5946;51.770;8.548;2023-04-01T19:56:28;5.30;;;4.80;;
11777;SDS011;5946;51.770;8.548;2023-04-01T20:01:37;5.63;;;5.07;;
11777;SDS011;5946;51.770;8.548;2023-04-01T20:04:17;5.50;;;5.00;;
11777;SDS011;5946;51.770;8.548;2023-04-01T20:06:53;6.07;;;5.47;;
11777;SDS011;5946;51.770;8.548;2023-04-01T20:14:23;5.23;;;4.73;;
11777;SDS011;5946;51.770;8.548;2023-04-01T20:17:07;6.00;;;5.00;;
11777;SDS011;5946;51.770;8.548;2023-04-01T20:22:05;6.33;;;4.37;;
11777;SDS011;5946;51.770;8.548;2023-04-01T20:24:36;4.40;;;4.00;;
11777;SDS011;5946;51.770;8.548;2023-04-01T20:27:04;4.47;;;4.07;;
11777;SDS011;5946;51.770;8.548;2023-04-01T20:29:41;4.43;;;4.03;;
11777;SDS011;5946;51.770;8.548;2023-04-01T20:32:25;7.57;;;4.40;;
11777;SDS011;5946;51.770;8.548;2023-04-01T20:34:58;4.93;;;4.43;;
11777;SDS011;5946;51.770;8.548;2023-04-01T20:37:34;4.40;;;4.00;;
11777;SDS011;5946;51.770;8.548;2023-04-01T20:45:27;4.70;;;4.30;;
11777;SDS011;5946;51.770;8.548;2023-04-01T20:48:40;5.13;;;4.63;;
11777;SDS011;5946;51.770;8.548;2023-04-01T20:50:41;4.80;;;4.23;;
11777;SDS011;5946;51.770;8.548;2023-04-01T20:53:12;5.10;;;4.60;;
11777;SDS011;5946;51.770;8.548;2023-04-01T21:08:35;4.50;;;4.10;;
11777;SDS011;5946;51.770;8.548;2023-04-01T21:11:20;3.73;;;3.43;;
11777;SDS011;5946;51.770;8.548;2023-04-01T21:16:44;3.90;;;3.50;;
11777;SDS011;5946;51.770;8.548;2023-04-01T21:19:20;4.03;;;3.63;;
11777;SDS011;5946;51.770;8.548;2023-04-01T21:22:03;4.73;;;3.90;;
11777;SDS011;5946;51.770;8.548;2023-04-01T21:32:19;5.90;;;3.97;;
11777;SDS011;5946;51.770;8.548;2023-04-01T21:42:24;3.77;;;3.47;;
11777;SDS011;5946;51.770;8.548;2023-04-01T21:47:42;5.03;;;3.60;;
11777;SDS011;5946;51.770;8.548;2023-04-01T22:06:31;6.37;;;5.50;;
11777;SDS011;5946;51.770;8.548;2023-04-01T22:09:03;6.17;;;5.57;;
11777;SDS011;5946;51.770;8.548;2023-04-01T22:16:36;6.20;;;5.60;;
11777;SDS011;5946;51.770;8.548;2023-04-01T22:19:06;7.27;;;5.83;;
11777;SDS011;5946;51.770;8.548;2023-04-01T22:24:10;6.23;;;5.63;;
11777;SDS011;5946;51.770;8.548;2023-04-01T22:26:42;6.60;;;6.00;;
11777;SDS011;5946;51.770;8.548;2023-04-01T22:29:31;7.63;;;5.73;;
11777;SDS011;5946;51.770;8.548;2023-04-01T22:32:02;6.17;;;5.57;;
11777;SDS011;5946;51.770;8.548;2023-04-01T22:37:10;7.17;;;6.40;;
11777;SDS011;5946;51.770;8.548;2023-04-01T22:39:50;7.77;;;6.80;;
11777;SDS011;5946;51.770;8.548;2023-04-01T22:47:40;7.00;;;6.30;;
11777;SDS011;5946;51.770;8.548;2023-04-01T22:50:29;8.93;;;7.03;;
11777;SDS011;5946;51.770;8.548;2023-04-01T22:53:19;8.53;;;7.40;;
11777;SDS011;5946;51.770;8.548;2023-04-01T22:55:43;8.80;;;7.90;;
11777;SDS011;5946;51.770;8.548;2023-04-01T22:58:14;8.67;;;7.53;;
11777;SDS011;5946;51.770;8.548;2023-04-01T23:00:48;8.20;;;7.23;;
11777;SDS011;5946;51.770;8.548;2023-04-01T23:05:52;9.37;;;7.37;;
11777;SDS011;5946;51.770;8.548;2023-04-01T23:10:58;9.07;;;7.43;;
11777;SDS011;5946;51.770;8.548;2023-04-01T23:13:28;8.77;;;6.93;;
11777;SDS011;5946;51.770;8.548;2023-04-01T23:15:55;7.87;;;7.07;;
11777;SDS011;5946;51.770;8.548;2023-04-01T23:18:22;7.53;;;6.60;;
11777;SDS011;5946;51.770;8.548;2023-04-01T23:20:53;8.23;;;7.03;;
11777;SDS011;5946;51.770;8.548;2023-04-01T23:26:02;8.30;;;6.77;;
11777;SDS011;5946;51.770;8.548;2023-04-01T23:28:39;11.17;;;7.77;;
11777;SDS011;5946;51.770;8.548;2023-04-01T23:33:58;9.17;;;7.47;;
11777;SDS011;5946;51.770;8.548;2023-04-01T23:36:25;10.90;;;8.07;;
11777;SDS011;5946;51.770;8.548;2023-04-01T23:38:50;8.67;;;7.77;;
11777;SDS011;5946;51.770;8.548;2023-04-01T23:41:23;11.87;;;8.43;;
11777;SDS011;5946;51.770;8.548;2023-04-01T23:44:00;10.77;;;8.83;;
11777;SDS011;5946;51.770;8.548;2023-04-01T23:46:27;9.77;;;8.60;;
11777;SDS011;5946;51.770;8.548;2023-04-01T23:48:54;10.10;;;8.00;;